Bourbonnais, IL

3:53 AM CST en Diciembre 22, 2014 (GMT -0600)
Lewis University | Change Station
CLOSE
Current Station
Aeropuerto
Location: Romeoville,
Altura: 673 ft
Estaciones meteorológicas cercanas

Alt 673 ft 41.60 °N, 88.10 °W | Updated 18 minutes ago

Muy nublado
Muy nublado
31 ° F
Sensación térmica 22 ° F
N
12
Viento Variable Viento desde SSE

Hoy
Alta -- | Baja -- ° F
--% Posibilidad de precipitaciones
Ayer
Alta -- | Baja -- ° F
Precip. -- pul
7:13 AM 4:26 PM
Luna nueva, 0% visible
Presión 29.96 pul
Visibilidad 5.0 Millas
Nubes Muy nublado 4800 ft
Nublado 5500 ft
Vientos helados 22 ° F
Punto de rocío 28 ° F
Humedad 90%
Precipitaciones 0.00 pul
Espesor de la nieve No disponible.
UV 0 de una escala de 12
Polen .10 de una escala de 12
Calidad del aire No disponible.
Flu Activity No disponible.
METAR KLOT 220935Z AUTO 16010KT 5SM BR BKN048 OVC055 M01/M02 A2996 RMK AO2 T10061021

More Conditions Fewer Conditions

Presión 29.96 pul
Visibilidad 5.0 Millas
Nubes Muy nublado 4800 ft
Nublado 5500 ft
Vientos helados 22 ° F
Punto de rocío 28 ° F
Humedad 90%
Precipitaciones 0.00 pul
Espesor de la nieve No disponible.
UV 0 de una escala de 12
Polen .10 de una escala de 12
Calidad del aire No disponible.
Flu Activity No disponible.
METAR KLOT 220935Z AUTO 16010KT 5SM BR BKN048 OVC055 M01/M02 A2996 RMK AO2 T10061021

More Conditions Fewer Conditions

10-Day Weather Forecast

Almanac

Astronomía

Dec. 22, 2014 Salida Puesta
Hora real
Crepúsculo civil
Crepúsculo náutico
Crepúsculo astronómico
Luna
Horas de luz
Horas de luz
Tomorrow will be .
, % of the Moon is Illuminated

Extremos de hoy

Máximos del estado Bajos del estado

Community

WunderPhotos

Upload Photos

1,779,583 ¡fotos cargadas!

WunderBlogs® & News

Nearby

Calidad del aire

  Calidad del aire Índice AQ Contaminante
Not available.

Grosos de nieve

Estación Profundido Altura

Actividad de terremotos

Ciudad Distance Mag. Tiempo y dato
Magnitud mínima muestra es 2,5.

Temperaturas de aguas costeras

Lugar Temperatura

Estaciones meteorológicas cercanas